createdAt,value
2019-06-08T00:00:48.729Z,13.80
2019-06-08T00:01:48.940Z,13.70
2019-06-08T00:02:51.080Z,13.74
2019-06-08T00:03:49.266Z,13.76
2019-06-08T00:04:52.072Z,13.73
2019-06-08T00:05:51.589Z,13.67
2019-06-08T00:06:50.819Z,13.73
2019-06-08T00:07:50.028Z,13.69
2019-06-08T00:08:50.229Z,13.67
2019-06-08T00:09:50.477Z,13.69
2019-06-08T00:10:50.702Z,13.69
2019-06-08T00:11:50.904Z,13.65
2019-06-08T00:12:51.118Z,13.67
2019-06-08T00:13:51.338Z,13.59
2019-06-08T00:14:51.539Z,13.65
2019-06-08T00:15:55.582Z,13.65
2019-06-08T00:16:51.907Z,13.65
2019-06-08T00:17:52.175Z,13.62
2019-06-08T00:18:52.336Z,13.65
2019-06-08T00:19:52.539Z,13.59
2019-06-08T00:20:52.755Z,13.54
2019-06-08T00:21:52.963Z,13.47
2019-06-08T00:22:53.181Z,13.47
2019-06-08T00:23:55.074Z,13.55
2019-06-08T00:24:53.527Z,13.63
2019-06-08T00:25:57.571Z,13.59
2019-06-08T00:26:55.618Z,13.56
2019-06-08T00:27:54.042Z,13.63
2019-06-08T00:28:54.269Z,13.65
2019-06-08T00:29:54.486Z,13.67
2019-06-08T00:30:54.572Z,13.70
2019-06-08T00:31:56.617Z,13.56
2019-06-08T00:32:54.960Z,13.65
2019-06-08T00:33:55.143Z,13.62
2019-06-08T00:34:55.365Z,13.65
2019-06-08T00:35:57.073Z,13.76
2019-06-08T00:36:55.785Z,13.71
2019-06-08T00:37:57.584Z,13.67
2019-06-08T00:38:56.157Z,13.79
2019-06-08T00:39:56.370Z,13.65
2019-06-08T00:40:56.583Z,13.69
2019-06-08T00:41:56.791Z,13.70
2019-06-08T00:42:57.003Z,13.65
2019-06-08T00:43:57.216Z,13.70
2019-06-08T00:44:57.427Z,13.76
2019-06-08T00:45:59.586Z,13.73
2019-06-08T00:46:57.840Z,13.79
2019-06-08T00:47:58.058Z,13.71
2019-06-08T00:49:00.080Z,13.65
2019-06-08T00:49:58.407Z,13.74
2019-06-08T00:50:58.649Z,13.63
2019-06-08T00:51:58.765Z,13.73
2019-06-08T00:53:01.581Z,13.67
2019-06-08T00:53:59.187Z,13.71
2019-06-08T00:54:59.416Z,13.71
2019-06-08T00:55:59.609Z,13.67
2019-06-08T00:56:59.811Z,13.69
2019-06-08T00:58:00.017Z,13.69
2019-06-08T00:59:00.266Z,13.74
2019-06-08T01:00:00.449Z,13.74
2019-06-08T01:01:00.689Z,13.70
2019-06-08T01:02:00.878Z,13.74
2019-06-08T01:03:01.098Z,13.69
2019-06-08T01:04:01.301Z,13.65
2019-06-08T01:05:01.513Z,13.74
2019-06-08T01:06:01.735Z,13.71
2019-06-08T01:07:03.583Z,13.73
2019-06-08T01:08:02.219Z,13.67
2019-06-08T01:09:02.371Z,13.71
2019-06-08T01:10:04.077Z,13.69
2019-06-08T01:11:02.814Z,13.63
2019-06-08T01:12:02.985Z,13.69
2019-06-08T01:13:03.218Z,13.62
2019-06-08T01:14:05.079Z,13.73
2019-06-08T01:15:03.574Z,13.69
2019-06-08T01:16:03.770Z,13.70
2019-06-08T01:17:05.591Z,13.65
2019-06-08T01:18:04.473Z,13.73
2019-06-08T01:19:04.379Z,13.69
2019-06-08T01:20:04.589Z,13.63
2019-06-08T01:21:04.804Z,13.65
2019-06-08T01:22:05.014Z,13.70
2019-06-08T01:23:05.226Z,13.65
2019-06-08T01:24:05.439Z,13.71
2019-06-08T01:25:05.671Z,13.63
2019-06-08T01:26:07.589Z,13.67
2019-06-08T01:27:06.058Z,13.67
2019-06-08T01:28:06.268Z,13.65
2019-06-08T01:29:06.489Z,13.74
2019-06-08T01:30:08.585Z,13.63
2019-06-08T01:31:06.913Z,13.65
2019-06-08T01:32:07.133Z,13.65
2019-06-08T01:33:09.123Z,13.71
2019-06-08T01:34:07.544Z,13.69
2019-06-08T01:35:07.756Z,13.73
2019-06-08T01:36:08.647Z,13.73
2019-06-08T01:37:08.119Z,13.69
2019-06-08T01:38:08.318Z,13.73
2019-06-08T01:39:08.524Z,13.63
2019-06-08T01:40:08.733Z,13.74
2019-06-08T01:41:08.946Z,13.76
2019-06-08T01:42:09.146Z,13.63
2019-06-08T01:43:11.089Z,13.67
2019-06-08T01:44:09.575Z,13.73
2019-06-08T01:45:10.803Z,13.70
2019-06-08T01:46:09.989Z,13.67
2019-06-08T01:47:10.194Z,13.74
2019-06-08T01:48:19.942Z,13.74
2019-06-08T01:49:12.596Z,13.77
2019-06-08T01:50:10.806Z,13.70
2019-06-08T01:51:11.015Z,13.70
2019-06-08T01:52:11.232Z,13.81
2019-06-08T01:53:11.432Z,13.67
2019-06-08T01:54:11.645Z,13.73
2019-06-08T01:55:11.862Z,13.70
2019-06-08T01:56:12.889Z,13.70
2019-06-08T01:57:12.233Z,13.70
2019-06-08T01:58:12.447Z,13.65
2019-06-08T01:59:12.652Z,13.61
2019-06-08T02:00:29.958Z,13.59
2019-06-08T02:01:13.084Z,13.63
2019-06-08T02:02:13.331Z,13.55
2019-06-08T02:03:13.405Z,13.55
2019-06-08T02:04:15.581Z,13.52
2019-06-08T02:05:13.798Z,13.47
2019-06-08T02:06:13.983Z,13.44
2019-06-08T02:07:14.199Z,13.46
2019-06-08T02:08:14.409Z,13.43
2019-06-08T02:09:14.612Z,13.47
2019-06-08T02:10:14.834Z,13.36
2019-06-08T02:11:15.044Z,13.47
2019-06-08T02:12:15.250Z,13.43
2019-06-08T02:13:15.456Z,13.37
2019-06-08T02:14:15.671Z,13.38
2019-06-08T02:15:15.882Z,13.32
2019-06-08T02:16:16.099Z,13.43
2019-06-08T02:17:18.077Z,13.43
2019-06-08T02:18:16.421Z,13.38
2019-06-08T02:19:16.629Z,13.38
2019-06-08T02:20:16.833Z,13.36
2019-06-08T02:21:17.040Z,13.32
2019-06-08T02:22:17.264Z,13.27
2019-06-08T02:23:17.467Z,13.37
2019-06-08T02:24:17.686Z,13.38
2019-06-08T02:25:19.575Z,13.25
2019-06-08T02:26:19.581Z,13.43
2019-06-08T02:27:18.178Z,13.29
2019-06-08T02:28:18.373Z,13.36
2019-06-08T02:29:18.587Z,13.30
2019-06-08T02:30:20.578Z,13.36
2019-06-08T02:31:18.910Z,13.37
2019-06-08T02:32:21.082Z,13.37
2019-06-08T02:33:21.087Z,13.33
2019-06-08T02:34:21.117Z,13.46
2019-06-08T02:35:19.556Z,13.21
2019-06-08T02:36:19.648Z,13.37
2019-06-08T02:37:19.854Z,13.33
2019-06-08T02:38:20.073Z,13.25
2019-06-08T02:39:20.280Z,13.32
2019-06-08T02:40:20.502Z,13.38
2019-06-08T02:41:20.726Z,13.36
2019-06-08T02:42:22.580Z,13.33
2019-06-08T02:43:21.163Z,13.32
2019-06-08T02:44:21.409Z,13.41
2019-06-08T02:45:21.589Z,13.41
2019-06-08T02:46:21.795Z,13.46
2019-06-08T02:47:22.006Z,13.46
2019-06-08T02:48:22.205Z,13.33
2019-06-08T02:49:22.421Z,13.46
2019-06-08T02:50:24.581Z,13.40
2019-06-08T02:51:22.799Z,13.33
2019-06-08T02:52:22.986Z,13.32
2019-06-08T02:53:25.554Z,13.47
2019-06-08T02:54:23.412Z,13.38
2019-06-08T02:55:23.637Z,13.32
2019-06-08T02:56:23.847Z,13.37
2019-06-08T02:57:24.059Z,13.37
2019-06-08T02:58:24.267Z,13.40
2019-06-08T02:59:24.472Z,13.38
2019-06-08T03:00:24.683Z,13.29
2019-06-08T03:01:24.894Z,13.37
2019-06-08T03:02:25.108Z,13.33
2019-06-08T03:03:27.082Z,13.37
2019-06-08T03:04:25.564Z,13.38
2019-06-08T03:05:29.756Z,13.49
2019-06-08T03:06:25.918Z,13.36
2019-06-08T03:07:28.084Z,13.37
2019-06-08T03:08:28.090Z,13.36
2019-06-08T03:09:26.412Z,13.47
2019-06-08T03:10:26.618Z,13.49
2019-06-08T03:11:26.832Z,13.32
2019-06-08T03:12:27.059Z,13.32
2019-06-08T03:13:31.200Z,13.40
2019-06-08T03:14:27.433Z,13.41
2019-06-08T03:15:27.648Z,13.36
2019-06-08T03:16:27.869Z,13.44
2019-06-08T03:17:28.074Z,13.47
2019-06-08T03:18:28.289Z,13.49
2019-06-08T03:19:28.503Z,13.52
2019-06-08T03:20:28.721Z,13.58
2019-06-08T03:21:28.927Z,13.55
2019-06-08T03:22:29.142Z,13.52
2019-06-08T03:23:29.350Z,13.55
2019-06-08T03:24:32.401Z,13.55
2019-06-08T03:25:29.671Z,13.54
2019-06-08T03:26:29.875Z,13.61
2019-06-08T03:27:30.101Z,13.52
2019-06-08T03:28:30.303Z,13.58
2019-06-08T03:29:30.530Z,13.65
2019-06-08T03:30:30.758Z,13.62
2019-06-08T03:31:33.947Z,13.56
2019-06-08T03:32:33.787Z,13.56
2019-06-08T03:33:34.575Z,13.59
2019-06-08T03:34:34.620Z,13.54
2019-06-08T03:35:34.916Z,13.56
2019-06-08T03:36:34.991Z,13.55
2019-06-08T03:37:33.310Z,13.69
2019-06-08T03:38:33.778Z,13.65
2019-06-08T03:39:32.643Z,13.56
2019-06-08T03:40:33.906Z,13.62
2019-06-08T03:41:34.395Z,13.62
2019-06-08T03:42:33.269Z,13.69
2019-06-08T03:43:35.402Z,13.65
2019-06-08T03:44:36.080Z,13.55
2019-06-08T03:45:34.293Z,13.63
2019-06-08T03:46:34.468Z,13.61
2019-06-08T03:47:34.580Z,13.56
2019-06-08T03:48:35.086Z,13.65
2019-06-08T03:49:42.924Z,13.63
2019-06-08T03:50:37.613Z,13.71
2019-06-08T03:51:37.858Z,13.74
2019-06-08T03:52:35.471Z,13.71
2019-06-08T03:53:35.836Z,13.71
2019-06-08T03:54:36.059Z,13.67
2019-06-08T03:55:37.793Z,13.74
2019-06-08T03:56:37.920Z,13.67
2019-06-08T03:57:38.076Z,13.69
2019-06-08T03:58:38.534Z,13.71
2019-06-08T03:59:38.349Z,13.65
2019-06-08T04:00:38.151Z,13.62
2019-06-08T04:01:37.470Z,13.79
2019-06-08T04:02:39.851Z,13.69
2019-06-08T04:03:37.638Z,13.79
2019-06-08T04:04:40.262Z,13.80
2019-06-08T04:05:40.024Z,13.79
2019-06-08T04:06:39.841Z,13.70
2019-06-08T04:07:39.661Z,13.71
2019-06-08T04:08:40.218Z,13.79
2019-06-08T04:09:46.148Z,13.79
2019-06-08T04:10:39.929Z,13.73
2019-06-08T04:11:40.165Z,13.69
2019-06-08T04:12:39.912Z,13.69
2019-06-08T04:13:39.983Z,13.74
2019-06-08T04:14:39.895Z,13.73
2019-06-08T04:15:42.651Z,13.71
2019-06-08T04:16:40.257Z,13.84
2019-06-08T04:17:42.048Z,13.87
2019-06-08T04:18:42.178Z,13.84
2019-06-08T04:20:01.627Z,13.92
2019-06-08T04:20:42.795Z,13.91
2019-06-08T04:21:44.298Z,13.94
2019-06-08T04:22:42.270Z,13.88
2019-06-08T04:23:44.964Z,13.95
2019-06-08T04:24:42.465Z,13.95
2019-06-08T04:25:44.780Z,13.98
2019-06-08T04:26:45.482Z,13.87
2019-06-08T04:27:42.270Z,13.98
2019-06-08T04:28:42.505Z,14.01
2019-06-08T04:29:43.963Z,14.01
2019-06-08T04:30:43.491Z,14.01
2019-06-08T04:31:43.787Z,14.04
2019-06-08T04:32:44.719Z,14.06
2019-06-08T04:33:44.296Z,14.07
2019-06-08T04:34:45.372Z,14.07
2019-06-08T04:35:45.178Z,14.09
2019-06-08T04:36:45.686Z,14.19
2019-06-08T04:37:44.769Z,14.04
2019-06-08T04:38:45.772Z,14.14
2019-06-08T04:39:45.102Z,14.21
2019-06-08T04:40:45.946Z,14.10
2019-06-08T04:41:46.900Z,14.17
2019-06-08T04:42:46.677Z,14.21
2019-06-08T04:43:47.028Z,14.25
2019-06-08T04:44:47.006Z,14.25
2019-06-08T04:45:49.612Z,14.16
2019-06-08T04:46:47.719Z,14.16
2019-06-08T04:47:48.203Z,14.35
2019-06-08T04:48:47.964Z,14.72
2019-06-08T04:49:47.252Z,14.72
2019-06-08T04:50:48.053Z,14.71
2019-06-08T04:51:47.678Z,14.71
2019-06-08T04:52:49.949Z,14.62
2019-06-08T04:53:49.357Z,14.65
2019-06-08T04:54:49.420Z,14.60
2019-06-08T04:55:49.247Z,14.56
2019-06-08T04:56:49.765Z,14.62
2019-06-08T04:57:50.618Z,14.68
2019-06-08T04:58:50.791Z,14.99
2019-06-08T04:59:50.603Z,15.15
2019-06-08T05:00:50.880Z,15.20
2019-06-08T05:01:49.424Z,15.08
2019-06-08T05:02:51.149Z,14.94
2019-06-08T05:03:50.069Z,15.26
2019-06-08T05:04:49.770Z,15.15
2019-06-08T05:05:50.294Z,15.11
2019-06-08T05:06:50.073Z,15.12
2019-06-08T05:07:50.463Z,15.02
2019-06-08T05:08:50.577Z,15.05
2019-06-08T05:09:50.718Z,15.05
2019-06-08T05:10:50.937Z,15.13
2019-06-08T05:11:51.199Z,15.31
2019-06-08T05:12:53.090Z,15.19
2019-06-08T05:13:51.534Z,15.15
2019-06-08T05:14:51.774Z,15.20
2019-06-08T05:15:51.957Z,15.17
2019-06-08T05:16:52.178Z,15.39
2019-06-08T05:17:52.384Z,15.51
2019-06-08T05:18:52.587Z,15.41
2019-06-08T05:19:52.809Z,15.27
2019-06-08T05:20:53.020Z,15.39
2019-06-08T05:21:53.227Z,15.33
2019-06-08T05:22:53.439Z,15.52
2019-06-08T05:23:58.544Z,15.35
2019-06-08T05:24:53.861Z,15.17
2019-06-08T05:25:54.068Z,15.17
2019-06-08T05:26:54.272Z,15.12
2019-06-08T05:27:54.546Z,15.05
2019-06-08T05:28:54.685Z,14.99
2019-06-08T05:29:54.903Z,14.99
2019-06-08T05:30:55.117Z,14.93
2019-06-08T05:31:55.335Z,14.88
2019-06-08T05:32:55.534Z,14.88
2019-06-08T05:33:55.749Z,14.93
2019-06-08T05:34:55.956Z,15.08
2019-06-08T05:35:58.101Z,15.06
2019-06-08T05:36:56.304Z,15.06
2019-06-08T05:37:56.507Z,14.99
2019-06-08T05:38:56.728Z,15.01
2019-06-08T05:39:56.943Z,15.12
2019-06-08T05:40:59.089Z,15.09
2019-06-08T05:41:57.348Z,14.99
2019-06-08T05:42:57.503Z,15.09
2019-06-08T05:43:57.651Z,15.01
2019-06-08T05:44:57.725Z,15.03
2019-06-08T05:45:57.934Z,14.98
2019-06-08T05:47:00.094Z,14.95
2019-06-08T05:47:58.303Z,14.75
2019-06-08T05:48:58.530Z,15.01
2019-06-08T05:50:01.619Z,15.03
2019-06-08T05:51:03.913Z,15.26
2019-06-08T05:51:59.137Z,15.03
2019-06-08T05:52:59.360Z,14.94
2019-06-08T05:54:02.749Z,15.03
2019-06-08T05:54:59.791Z,15.57
2019-06-08T05:56:00.001Z,16.16
2019-06-08T05:57:00.206Z,16.60
2019-06-08T05:58:00.447Z,16.75
2019-06-08T05:59:00.531Z,17.20
2019-06-08T06:00:08.442Z,17.54
2019-06-08T06:01:00.955Z,17.20
2019-06-08T06:02:01.170Z,17.82
2019-06-08T06:03:01.370Z,17.94
2019-06-08T06:04:01.597Z,18.34
2019-06-08T06:05:03.608Z,18.61
2019-06-08T06:06:01.929Z,18.86
2019-06-08T06:07:04.092Z,18.42
2019-06-08T06:08:02.333Z,18.39
2019-06-08T06:09:02.531Z,18.61
2019-06-08T06:10:02.757Z,18.22
2019-06-08T06:11:02.965Z,18.12
2019-06-08T06:12:07.095Z,18.28
2019-06-08T06:13:04.332Z,17.79
2019-06-08T06:14:05.094Z,17.48
2019-06-08T06:15:05.090Z,17.51
2019-06-08T06:16:03.683Z,17.70
2019-06-08T06:17:03.887Z,16.95
2019-06-08T06:18:04.097Z,17.63
2019-06-08T06:19:04.305Z,17.38
2019-06-08T06:20:04.539Z,17.32
2019-06-08T06:21:11.094Z,16.68
2019-06-08T06:22:07.598Z,16.68
2019-06-08T06:23:06.597Z,16.50
2019-06-08T06:24:06.593Z,16.95
2019-06-08T06:25:05.180Z,17.48
2019-06-08T06:26:05.470Z,17.57
2019-06-08T06:27:07.601Z,17.62
2019-06-08T06:28:06.470Z,18.07
2019-06-08T06:29:07.594Z,18.37
2019-06-08T06:30:10.099Z,19.01
2019-06-08T06:31:06.305Z,19.18
2019-06-08T06:32:12.121Z,19.53
2019-06-08T06:33:10.590Z,20.00
2019-06-08T06:34:07.982Z,20.56
2019-06-08T06:35:08.629Z,20.58
2019-06-08T06:36:12.079Z,20.02
2019-06-08T06:37:09.112Z,19.66
2019-06-08T06:38:23.138Z,19.78
2019-06-08T06:39:07.809Z,20.08
2019-06-08T06:40:09.602Z,20.18
2019-06-08T06:41:24.092Z,20.47
2019-06-08T06:42:10.092Z,20.77
2019-06-08T06:43:16.094Z,20.72
2019-06-08T06:44:10.620Z,20.87
2019-06-08T06:45:13.563Z,20.99
2019-06-08T06:46:10.646Z,21.24
2019-06-08T06:47:11.096Z,20.84
2019-06-08T06:48:11.119Z,20.72
2019-06-08T06:49:11.098Z,20.87
2019-06-08T06:50:11.092Z,20.74
2019-06-08T06:51:25.312Z,20.77
2019-06-08T06:52:11.602Z,20.71
2019-06-08T06:53:17.595Z,20.13
2019-06-08T06:54:12.108Z,20.46
2019-06-08T06:55:10.464Z,20.33
2019-06-08T06:56:18.642Z,19.98
2019-06-08T06:57:26.596Z,20.09
2019-06-08T06:58:12.075Z,20.12
2019-06-08T06:59:35.074Z,20.47
2019-06-08T07:00:23.246Z,20.06
2019-06-08T07:01:11.710Z,19.01
2019-06-08T07:02:13.628Z,18.50
2019-06-08T07:03:14.097Z,19.17
2019-06-08T07:04:35.095Z,19.65
2019-06-08T07:05:19.097Z,19.88
2019-06-08T07:06:13.325Z,19.50
2019-06-08T07:07:14.599Z,18.79
2019-06-08T07:08:19.601Z,19.11
2019-06-08T07:09:29.103Z,18.39
2019-06-08T07:10:13.335Z,18.50
2019-06-08T07:11:16.593Z,18.21
2019-06-08T07:12:14.617Z,18.39
2019-06-08T07:13:13.734Z,19.17
2019-06-08T07:14:19.645Z,19.65
2019-06-08T07:15:15.060Z,19.53
2019-06-08T07:16:18.852Z,19.86
2019-06-08T07:17:18.153Z,20.08
2019-06-08T07:18:39.596Z,20.87
2019-06-08T07:19:18.606Z,21.13
2019-06-08T07:20:37.108Z,20.59
2019-06-08T07:21:18.057Z,20.12
2019-06-08T07:22:16.451Z,18.99
2019-06-08T07:23:17.125Z,19.06
2019-06-08T07:24:19.600Z,18.50
2019-06-08T07:25:21.560Z,18.15
2019-06-08T07:26:32.111Z,18.83
2019-06-08T07:27:16.292Z,19.51
2019-06-08T07:28:18.097Z,18.95
2019-06-08T07:29:20.607Z,19.13
2019-06-08T07:30:20.636Z,19.39
2019-06-08T07:31:18.642Z,18.90
2019-06-08T07:32:19.122Z,19.68
2019-06-08T07:33:20.072Z,19.84
2019-06-08T07:34:21.103Z,19.23
2019-06-08T07:35:33.625Z,18.55
2019-06-08T07:36:17.957Z,18.25
2019-06-08T07:37:19.551Z,17.91
2019-06-08T07:38:20.155Z,17.62
2019-06-08T07:39:18.502Z,17.46
2019-06-08T07:40:20.597Z,17.23
2019-06-08T07:41:20.658Z,17.14
2019-06-08T07:42:22.627Z,16.92
2019-06-08T07:43:40.327Z,16.92
2019-06-08T07:44:21.136Z,17.29
2019-06-08T07:45:20.043Z,17.33
2019-06-08T07:46:19.930Z,17.33
2019-06-08T07:47:20.143Z,17.23
2019-06-08T07:49:57.527Z,18.04
2019-06-08T07:50:54.380Z,18.62
2019-06-08T07:52:04.067Z,19.13
2019-06-08T07:52:52.897Z,19.55
2019-06-08T07:53:53.550Z,19.93
2019-06-08T07:54:57.006Z,20.21
2019-06-08T07:55:56.131Z,20.28
2019-06-08T07:56:53.373Z,20.21
2019-06-08T07:57:57.001Z,20.95
2019-06-08T07:58:56.833Z,20.59
2019-06-08T07:59:57.499Z,20.24
2019-06-08T08:00:54.640Z,20.05
2019-06-08T08:01:58.236Z,20.05
2019-06-08T08:02:56.285Z,20.41
2019-06-08T08:03:54.491Z,20.95
2019-06-08T08:04:56.783Z,20.98
2019-06-08T08:05:56.774Z,20.13
2019-06-08T08:06:58.790Z,19.97
2019-06-08T08:08:03.011Z,20.21
2019-06-08T08:08:59.970Z,20.64
2019-06-08T08:09:58.718Z,20.79
2019-06-08T08:10:58.650Z,20.98
2019-06-08T08:11:59.811Z,20.81
2019-06-08T08:13:00.002Z,20.86
2019-06-08T08:14:01.012Z,21.23
2019-06-08T08:14:58.026Z,21.36
2019-06-08T08:16:02.758Z,21.51
2019-06-08T08:17:00.535Z,21.82
2019-06-08T08:17:57.711Z,21.50
2019-06-08T08:18:59.692Z,20.72
2019-06-08T08:20:05.038Z,19.84
2019-06-08T08:21:17.833Z,19.69
2019-06-08T08:22:02.369Z,19.75
2019-06-08T08:23:04.150Z,19.83
2019-06-08T08:24:01.460Z,20.16
2019-06-08T08:25:04.768Z,20.34
2019-06-08T08:26:02.504Z,20.35
2019-06-08T08:27:03.515Z,19.98
2019-06-08T08:28:01.026Z,19.87
2019-06-08T08:29:03.521Z,19.79
2019-06-08T08:30:01.493Z,19.57
2019-06-08T08:31:15.514Z,19.79
2019-06-08T08:32:18.643Z,19.70
2019-06-08T08:33:03.258Z,19.42
2019-06-08T08:34:08.504Z,19.70
2019-06-08T08:35:08.862Z,19.10
2019-06-08T08:36:04.074Z,19.31
2019-06-08T08:37:06.004Z,18.94
2019-06-08T08:38:04.314Z,18.83
2019-06-08T08:39:02.458Z,18.65
2019-06-08T08:40:03.034Z,18.52
2019-06-08T08:41:07.289Z,18.61
2019-06-08T08:42:05.270Z,18.65
2019-06-08T08:43:03.503Z,18.57
2019-06-08T08:44:04.843Z,18.55
2019-06-08T08:45:05.447Z,18.34
2019-06-08T08:46:02.135Z,17.95
2019-06-08T08:47:27.770Z,17.91
2019-06-08T08:48:21.419Z,17.79
2019-06-08T08:49:09.564Z,17.97
2019-06-08T08:50:07.411Z,18.03
2019-06-08T08:51:03.668Z,18.13
2019-06-08T08:52:03.090Z,18.22
2019-06-08T08:53:04.337Z,18.47
2019-06-08T08:54:05.460Z,18.57
2019-06-08T08:55:05.523Z,18.43
2019-06-08T08:56:07.505Z,18.36
2019-06-08T08:57:08.433Z,18.22
2019-06-08T08:58:08.213Z,18.15
2019-06-08T08:59:10.713Z,18.36
2019-06-08T09:00:05.282Z,19.35
2019-06-08T09:01:08.502Z,19.78
2019-06-08T09:02:12.504Z,20.05
2019-06-08T09:03:24.341Z,19.76
2019-06-08T09:04:08.758Z,19.68
2019-06-08T09:05:08.603Z,19.25
2019-06-08T09:06:09.505Z,19.06
2019-06-08T09:07:09.979Z,19.35
2019-06-08T09:08:23.327Z,19.60
2019-06-08T09:09:08.666Z,20.05
2019-06-08T09:10:08.605Z,19.87
2019-06-08T09:11:30.459Z,20.16
2019-06-08T09:12:13.507Z,20.15
2019-06-08T09:13:11.940Z,19.72
2019-06-08T09:14:13.808Z,19.63
2019-06-08T09:15:08.571Z,19.47
2019-06-08T09:16:09.538Z,19.23
2019-06-08T09:17:08.550Z,19.10
2019-06-08T09:18:10.011Z,18.84
2019-06-08T09:19:10.039Z,18.79
2019-06-08T09:20:13.083Z,18.84
2019-06-08T09:21:10.513Z,19.13
2019-06-08T09:22:08.790Z,19.28
2019-06-08T09:23:15.933Z,19.47
2019-06-08T09:24:13.009Z,19.53
2019-06-08T09:25:09.346Z,19.39
2019-06-08T09:26:25.016Z,19.42
2019-06-08T09:27:13.542Z,19.23
2019-06-08T09:28:21.892Z,19.23
2019-06-08T09:29:11.254Z,19.14
2019-06-08T09:30:10.166Z,19.46
2019-06-08T09:31:13.063Z,19.39
2019-06-08T09:32:12.632Z,19.80
2019-06-08T09:33:14.510Z,19.33
2019-06-08T09:34:15.438Z,18.80
2019-06-08T09:35:11.111Z,18.65
2019-06-08T09:36:11.323Z,18.54
2019-06-08T09:37:13.506Z,18.94
2019-06-08T09:38:18.386Z,18.83
2019-06-08T09:39:14.089Z,18.91
2019-06-08T09:40:14.013Z,19.28
2019-06-08T09:41:18.471Z,19.32
2019-06-08T09:42:12.365Z,19.11
2019-06-08T09:43:18.726Z,18.91
2019-06-08T09:44:12.828Z,18.97
2019-06-08T09:45:12.977Z,18.82
2019-06-08T09:46:14.135Z,19.50
2019-06-08T09:47:17.578Z,19.79
2019-06-08T09:48:18.053Z,20.02
2019-06-08T09:49:14.642Z,19.66
2019-06-08T09:50:18.272Z,19.46
2019-06-08T09:51:18.666Z,19.18
2019-06-08T09:52:35.277Z,18.97
2019-06-08T09:53:23.812Z,18.82
2019-06-08T09:54:17.963Z,18.62
2019-06-08T09:55:14.770Z,18.61
2019-06-08T09:56:18.744Z,18.62
2019-06-08T09:57:22.989Z,18.58
2019-06-08T09:58:19.035Z,18.55
2019-06-08T09:59:19.243Z,18.62
2019-06-08T10:00:21.317Z,18.83
2019-06-08T10:01:18.263Z,19.18
2019-06-08T10:02:18.454Z,19.79
2019-06-08T10:03:18.413Z,20.21
2019-06-08T10:04:16.404Z,20.09
2019-06-08T10:05:18.968Z,19.69
2019-06-08T10:06:19.469Z,19.21
2019-06-08T10:07:18.634Z,18.84
2019-06-08T10:08:20.237Z,18.52
2019-06-08T10:09:19.488Z,18.54
2019-06-08T10:10:18.147Z,18.55
2019-06-08T10:11:17.635Z,18.49
2019-06-08T10:12:18.869Z,18.27
2019-06-08T10:13:18.902Z,18.19
2019-06-08T10:14:20.051Z,18.19
2019-06-08T10:15:20.013Z,18.40
2019-06-08T10:16:20.577Z,18.54
2019-06-08T10:17:22.605Z,18.58
2019-06-08T10:18:19.110Z,18.64
2019-06-08T10:19:21.013Z,18.86
2019-06-08T10:20:19.347Z,18.62
2019-06-08T10:21:22.572Z,18.65
2019-06-08T10:22:20.861Z,18.67
2019-06-08T10:23:30.606Z,18.61
2019-06-08T10:24:21.257Z,18.58
2019-06-08T10:25:20.375Z,18.50
2019-06-08T10:26:20.577Z,18.73
2019-06-08T10:27:22.553Z,18.76
2019-06-08T10:28:21.896Z,18.72
2019-06-08T10:29:21.303Z,18.76
2019-06-08T10:30:25.012Z,19.29
2019-06-08T10:31:43.026Z,20.00
2019-06-08T10:32:23.514Z,19.91
2019-06-08T10:33:22.051Z,20.00
2019-06-08T10:34:23.294Z,20.06
2019-06-08T10:35:22.531Z,19.88
2019-06-08T10:36:28.160Z,19.73
2019-06-08T10:37:33.726Z,19.63
2019-06-08T10:38:22.971Z,19.46
2019-06-08T10:39:31.015Z,19.18
2019-06-08T10:40:25.015Z,18.84
2019-06-08T10:41:27.865Z,18.90
2019-06-08T10:42:24.607Z,18.79
2019-06-08T10:43:25.538Z,18.62
2019-06-08T10:44:24.003Z,18.49
2019-06-08T10:45:28.457Z,18.44
2019-06-08T10:46:25.383Z,18.52
2019-06-08T10:47:29.520Z,18.54
2019-06-08T10:48:27.626Z,18.49
2019-06-08T10:49:31.029Z,18.57
2019-06-08T10:50:25.234Z,18.76
2019-06-08T10:51:26.480Z,18.87
2019-06-08T10:52:28.154Z,19.13
2019-06-08T10:53:32.642Z,19.25
2019-06-08T10:54:27.790Z,19.29
2019-06-08T10:55:29.545Z,19.42
2019-06-08T10:56:34.019Z,19.17
2019-06-08T10:57:33.024Z,19.05
2019-06-08T10:58:28.367Z,18.91
2019-06-08T10:59:28.997Z,18.73
2019-06-08T11:00:28.574Z,18.70
2019-06-08T11:01:33.024Z,18.64
2019-06-08T11:02:28.383Z,18.79
2019-06-08T11:03:30.677Z,18.70
2019-06-08T11:04:29.530Z,18.61
2019-06-08T11:05:31.520Z,18.57
2019-06-08T11:06:29.544Z,18.44
2019-06-08T11:07:29.566Z,18.59
2019-06-08T11:08:38.852Z,18.37
2019-06-08T11:09:28.641Z,18.47
2019-06-08T11:10:28.580Z,18.28
2019-06-08T11:11:28.771Z,18.31
2019-06-08T11:12:30.418Z,18.36
2019-06-08T11:13:31.030Z,18.27
2019-06-08T11:14:31.058Z,18.37
2019-06-08T11:15:31.030Z,18.28
2019-06-08T11:16:29.654Z,18.28
2019-06-08T11:17:29.754Z,18.18
2019-06-08T11:18:29.986Z,18.28
2019-06-08T11:19:30.119Z,18.36
2019-06-08T11:20:32.024Z,18.37
2019-06-08T11:21:30.363Z,18.73
2019-06-08T11:22:33.602Z,19.10
2019-06-08T11:23:32.519Z,19.60
2019-06-08T11:24:32.524Z,19.79
2019-06-08T11:25:42.611Z,19.87
2019-06-08T11:26:33.022Z,19.84
2019-06-08T11:27:38.758Z,19.86
2019-06-08T11:28:33.524Z,19.75
2019-06-08T11:29:38.139Z,19.66
2019-06-08T11:30:33.529Z,19.46
2019-06-08T11:31:33.524Z,19.42
2019-06-08T11:32:32.179Z,19.42
2019-06-08T11:33:34.052Z,19.42
2019-06-08T11:34:32.534Z,19.10
2019-06-08T11:35:34.525Z,19.15
2019-06-08T11:36:32.861Z,19.01
2019-06-08T11:37:33.083Z,18.82
2019-06-08T11:38:35.041Z,19.05
2019-06-08T11:39:38.208Z,18.98
2019-06-08T11:40:34.631Z,19.02
2019-06-08T11:41:33.868Z,19.15
2019-06-08T11:42:34.079Z,19.25
2019-06-08T11:43:35.236Z,19.29
2019-06-08T11:44:38.761Z,19.20
2019-06-08T11:45:37.855Z,19.24
2019-06-08T11:46:38.442Z,19.29
2019-06-08T11:47:39.122Z,19.42
2019-06-08T11:48:39.278Z,19.17
2019-06-08T11:49:35.183Z,19.01
2019-06-08T11:50:35.287Z,19.10
2019-06-08T11:51:37.669Z,19.08
2019-06-08T11:52:38.069Z,19.18
2019-06-08T11:53:38.302Z,19.01
2019-06-08T11:54:38.094Z,19.13
2019-06-08T11:55:38.454Z,19.15
2019-06-08T11:56:44.023Z,19.28
2019-06-08T11:57:37.312Z,19.38
2019-06-08T11:58:38.544Z,19.46
2019-06-08T11:59:39.027Z,19.31
2019-06-08T12:00:39.029Z,19.14
2019-06-08T12:01:37.488Z,19.21
2019-06-08T12:02:41.307Z,19.11
2019-06-08T12:03:39.534Z,19.18
2019-06-08T12:04:39.525Z,19.01
2019-06-08T12:05:41.031Z,18.92
2019-06-08T12:06:38.244Z,18.98
2019-06-08T12:07:40.072Z,19.18
2019-06-08T12:08:42.520Z,19.06
2019-06-08T12:09:40.525Z,18.97
2019-06-08T12:10:42.531Z,19.14
2019-06-08T12:11:39.116Z,18.94
2019-06-08T12:12:39.331Z,18.83
2019-06-08T12:13:40.542Z,18.91
2019-06-08T12:14:41.525Z,18.92
2019-06-08T12:15:43.530Z,19.10
2019-06-08T12:17:03.441Z,19.40
2019-06-08T12:17:44.032Z,19.50
2019-06-08T12:18:44.080Z,19.76
2019-06-08T12:19:42.040Z,19.69
2019-06-08T12:20:40.737Z,19.66
2019-06-08T12:21:41.006Z,19.50
2019-06-08T12:22:43.071Z,19.46
2019-06-08T12:23:41.312Z,19.53
2019-06-08T12:24:43.074Z,19.43
2019-06-08T12:25:41.742Z,19.31
2019-06-08T12:26:43.528Z,19.28
2019-06-08T12:27:44.040Z,19.39
2019-06-08T12:28:44.028Z,19.54
2019-06-08T12:29:42.623Z,19.42
2019-06-08T12:30:42.845Z,19.29
2019-06-08T12:31:45.029Z,19.18
2019-06-08T12:32:43.254Z,19.21
2019-06-08T12:33:48.764Z,19.32
2019-06-08T12:34:44.991Z,19.43
2019-06-08T12:35:47.597Z,19.17
2019-06-08T12:36:47.933Z,19.17
2019-06-08T12:37:48.405Z,19.11
2019-06-08T12:38:51.066Z,19.23
2019-06-08T12:39:46.030Z,19.40
2019-06-08T12:40:48.521Z,19.32
2019-06-08T12:41:44.887Z,19.31
2019-06-08T12:42:49.057Z,19.35
2019-06-08T12:43:47.978Z,19.46
2019-06-08T12:44:47.578Z,19.38
2019-06-08T12:45:45.629Z,19.54
2019-06-08T12:46:48.553Z,19.63
2019-06-08T12:47:47.876Z,19.50
2019-06-08T12:48:50.036Z,19.47
2019-06-08T12:49:49.056Z,19.70
2019-06-08T12:50:47.997Z,19.63
2019-06-08T12:51:51.846Z,19.57
2019-06-08T12:52:54.560Z,19.58
2019-06-08T12:53:47.240Z,19.60
2019-06-08T12:54:59.204Z,19.63
2019-06-08T12:55:57.722Z,19.79
2019-06-08T12:56:48.022Z,19.78